createdAt,value
2017-05-15T00:00:24.830Z,14.50
2017-05-15T00:01:25.444Z,14.58
2017-05-15T00:02:26.064Z,14.50
2017-05-15T00:03:26.678Z,14.52
2017-05-15T00:04:27.272Z,14.47
2017-05-15T00:05:27.883Z,14.51
2017-05-15T00:06:28.490Z,14.47
2017-05-15T00:07:29.100Z,14.51
2017-05-15T00:08:29.708Z,14.52
2017-05-15T00:09:30.305Z,14.60
2017-05-15T00:10:30.917Z,14.65
2017-05-15T00:11:31.567Z,14.55
2017-05-15T00:12:32.184Z,14.51
2017-05-15T00:13:32.791Z,14.52
2017-05-15T00:14:33.399Z,14.47
2017-05-15T00:15:33.999Z,14.43
2017-05-15T00:16:34.644Z,14.33
2017-05-15T00:17:35.247Z,14.37
2017-05-15T00:18:35.857Z,14.32
2017-05-15T00:19:36.453Z,14.33
2017-05-15T00:20:37.068Z,14.29
2017-05-15T00:21:37.666Z,14.29
2017-05-15T00:22:38.269Z,14.36
2017-05-15T00:23:38.884Z,14.21
2017-05-15T00:24:39.492Z,14.19
2017-05-15T00:25:40.085Z,14.18
2017-05-15T00:26:40.697Z,14.29
2017-05-15T00:27:41.296Z,14.23
2017-05-15T00:28:41.902Z,14.23
2017-05-15T00:29:42.509Z,14.15
2017-05-15T00:30:43.115Z,14.12
2017-05-15T00:31:43.713Z,14.21
2017-05-15T00:32:44.326Z,14.15
2017-05-15T00:33:44.942Z,14.14
2017-05-15T00:34:45.590Z,14.15
2017-05-15T00:35:46.210Z,14.12
2017-05-15T00:36:46.858Z,14.12
2017-05-15T00:37:47.481Z,14.08
2017-05-15T00:38:48.085Z,14.11
2017-05-15T00:39:48.681Z,14.11
2017-05-15T00:40:49.278Z,14.11
2017-05-15T00:41:49.924Z,14.00
2017-05-15T00:42:50.523Z,14.10
2017-05-15T00:43:51.118Z,14.10
2017-05-15T00:44:51.719Z,14.07
2017-05-15T00:45:52.331Z,14.00
2017-05-15T00:46:52.991Z,14.03
2017-05-15T00:47:53.644Z,14.00
2017-05-15T00:48:54.196Z,14.11
2017-05-15T00:49:54.794Z,14.08
2017-05-15T00:50:55.405Z,14.02
2017-05-15T00:51:56.069Z,14.10
2017-05-15T00:52:56.680Z,14.03
2017-05-15T00:53:57.289Z,13.92
2017-05-15T00:54:57.887Z,13.87
2017-05-15T00:55:58.498Z,13.87
2017-05-15T00:56:59.098Z,13.89
2017-05-15T00:57:59.697Z,13.86
2017-05-15T00:59:00.305Z,13.84
2017-05-15T01:00:00.905Z,13.77
2017-05-15T01:01:01.501Z,13.79
2017-05-15T01:02:02.115Z,13.74
2017-05-15T01:03:02.699Z,13.71
2017-05-15T01:04:03.307Z,13.72
2017-05-15T01:05:03.903Z,13.72
2017-05-15T01:06:04.509Z,13.69
2017-05-15T01:07:05.164Z,13.72
2017-05-15T01:08:05.771Z,13.72
2017-05-15T01:09:06.378Z,13.75
2017-05-15T01:10:06.977Z,13.81
2017-05-15T01:11:07.576Z,13.71
2017-05-15T01:12:08.236Z,13.71
2017-05-15T01:13:08.837Z,13.74
2017-05-15T01:14:09.450Z,13.71
2017-05-15T01:15:10.051Z,13.57
2017-05-15T01:16:10.658Z,13.72
2017-05-15T01:17:11.312Z,13.57
2017-05-15T01:18:11.920Z,13.59
2017-05-15T01:19:12.519Z,13.44
2017-05-15T01:20:13.128Z,13.46
2017-05-15T01:21:13.739Z,13.33
2017-05-15T01:22:14.398Z,13.23
2017-05-15T01:23:14.997Z,13.26
2017-05-15T01:24:15.602Z,13.23
2017-05-15T01:25:16.208Z,13.19
2017-05-15T01:26:16.816Z,13.16
2017-05-15T01:27:17.561Z,13.25
2017-05-15T01:28:18.170Z,13.12
2017-05-15T01:29:18.785Z,13.20
2017-05-15T01:30:19.384Z,13.01
2017-05-15T01:31:19.980Z,12.98
2017-05-15T01:32:20.583Z,12.95
2017-05-15T01:33:21.205Z,13.02
2017-05-15T01:34:21.814Z,12.98
2017-05-15T01:35:22.426Z,12.94
2017-05-15T01:36:23.038Z,13.01
2017-05-15T01:37:23.682Z,12.93
2017-05-15T01:38:24.291Z,12.97
2017-05-15T01:39:24.904Z,12.95
2017-05-15T01:40:25.514Z,12.90
2017-05-15T01:41:26.111Z,12.93
2017-05-15T01:42:26.761Z,12.87
2017-05-15T01:43:27.374Z,12.76
2017-05-15T01:44:27.972Z,12.67
2017-05-15T01:45:28.581Z,12.68
2017-05-15T01:46:29.192Z,12.68
2017-05-15T01:47:29.836Z,12.71
2017-05-15T01:48:30.432Z,12.69
2017-05-15T01:49:31.033Z,12.69
2017-05-15T01:50:31.646Z,12.69
2017-05-15T01:51:32.242Z,12.71
2017-05-15T01:52:32.853Z,12.60
2017-05-15T01:53:33.454Z,12.60
2017-05-15T01:54:34.064Z,12.60
2017-05-15T01:55:34.674Z,12.55
2017-05-15T01:56:35.274Z,12.47
2017-05-15T01:57:35.923Z,12.49
2017-05-15T01:58:36.530Z,12.44
2017-05-15T01:59:37.126Z,12.47
2017-05-15T02:00:37.727Z,12.50
2017-05-15T02:01:38.337Z,12.49
2017-05-15T02:02:38.944Z,12.40
2017-05-15T02:03:39.554Z,12.50
2017-05-15T02:04:40.151Z,12.49
2017-05-15T02:05:40.748Z,12.46
2017-05-15T02:06:41.348Z,12.44
2017-05-15T02:07:41.958Z,12.42
2017-05-15T02:08:42.555Z,12.44
2017-05-15T02:09:43.165Z,12.39
2017-05-15T02:10:43.813Z,12.25
2017-05-15T02:11:44.397Z,12.39
2017-05-15T02:12:45.003Z,12.34
2017-05-15T02:13:45.602Z,12.28
2017-05-15T02:14:46.215Z,12.34
2017-05-15T02:15:46.875Z,12.28
2017-05-15T02:16:47.481Z,12.25
2017-05-15T02:17:48.096Z,12.19
2017-05-15T02:18:48.703Z,12.11
2017-05-15T02:19:49.303Z,12.13
2017-05-15T02:20:49.923Z,12.09
2017-05-15T02:21:50.532Z,12.04
2017-05-15T02:22:51.129Z,11.98
2017-05-15T02:23:51.736Z,12.03
2017-05-15T02:24:52.334Z,12.07
2017-05-15T02:25:52.991Z,11.91
2017-05-15T02:26:53.586Z,11.90
2017-05-15T02:27:54.197Z,11.91
2017-05-15T02:28:54.795Z,11.91
2017-05-15T02:29:55.405Z,11.87
2017-05-15T02:30:56.005Z,11.76
2017-05-15T02:31:56.602Z,11.67
2017-05-15T02:32:57.210Z,11.69
2017-05-15T02:33:57.805Z,11.69
2017-05-15T02:34:58.411Z,11.62
2017-05-15T02:35:59.020Z,11.59
2017-05-15T02:36:59.631Z,11.54
2017-05-15T02:38:00.231Z,11.47
2017-05-15T02:39:00.827Z,11.47
2017-05-15T02:40:01.437Z,11.50
2017-05-15T02:41:02.046Z,11.37
2017-05-15T02:42:02.658Z,11.24
2017-05-15T02:43:03.267Z,11.26
2017-05-15T02:44:03.870Z,11.15
2017-05-15T02:45:04.479Z,11.11
2017-05-15T02:46:05.081Z,10.96
2017-05-15T02:47:05.743Z,10.96
2017-05-15T02:48:06.343Z,11.07
2017-05-15T02:49:06.937Z,11.11
2017-05-15T02:50:07.545Z,11.03
2017-05-15T02:51:08.144Z,11.12
2017-05-15T02:52:08.796Z,11.07
2017-05-15T02:53:09.401Z,11.08
2017-05-15T02:54:10.007Z,11.03
2017-05-15T02:55:10.608Z,11.11
2017-05-15T02:56:11.207Z,10.96
2017-05-15T02:57:11.820Z,11.07
2017-05-15T02:58:12.421Z,11.00
2017-05-15T02:59:13.034Z,11.03
2017-05-15T03:00:13.642Z,11.07
2017-05-15T03:01:14.240Z,11.09
2017-05-15T03:02:14.846Z,11.01
2017-05-15T03:03:15.441Z,11.18
2017-05-15T03:04:16.113Z,11.11
2017-05-15T03:05:16.715Z,11.07
2017-05-15T03:06:17.313Z,11.08
2017-05-15T03:07:17.912Z,11.08
2017-05-15T03:08:18.526Z,11.04
2017-05-15T03:09:19.136Z,11.04
2017-05-15T03:10:19.744Z,10.96
2017-05-15T03:11:20.338Z,10.96
2017-05-15T03:12:20.949Z,11.07
2017-05-15T03:13:21.564Z,11.04
2017-05-15T03:14:22.224Z,11.03
2017-05-15T03:15:22.836Z,11.08
2017-05-15T03:16:23.445Z,11.03
2017-05-15T03:17:24.056Z,11.07
2017-05-15T03:18:24.649Z,11.08
2017-05-15T03:19:25.355Z,11.08
2017-05-15T03:20:25.921Z,11.09
2017-05-15T03:21:26.531Z,10.96
2017-05-15T03:22:27.137Z,10.96
2017-05-15T03:23:27.744Z,10.97
2017-05-15T03:24:28.390Z,11.04
2017-05-15T03:25:29.002Z,11.00
2017-05-15T03:26:29.605Z,10.99
2017-05-15T03:27:30.215Z,10.93
2017-05-15T03:28:30.814Z,11.01
2017-05-15T03:29:31.469Z,11.00
2017-05-15T03:30:32.070Z,11.03
2017-05-15T03:31:32.683Z,11.00
2017-05-15T03:32:33.283Z,10.96
2017-05-15T03:33:33.895Z,10.96
2017-05-15T03:34:34.494Z,10.99
2017-05-15T03:35:35.108Z,10.91
2017-05-15T03:36:35.766Z,10.83
2017-05-15T03:37:36.369Z,10.83
2017-05-15T03:38:36.971Z,10.91
2017-05-15T03:39:37.570Z,10.91
2017-05-15T03:40:38.171Z,10.85
2017-05-15T03:41:38.787Z,10.82
2017-05-15T03:42:39.385Z,10.85
2017-05-15T03:43:39.995Z,10.83
2017-05-15T03:44:40.610Z,10.78
2017-05-15T03:45:41.208Z,10.90
2017-05-15T03:46:41.872Z,10.91
2017-05-15T03:47:42.486Z,10.93
2017-05-15T03:48:43.084Z,10.82
2017-05-15T03:49:43.692Z,10.83
2017-05-15T03:50:44.303Z,10.82
2017-05-15T03:51:44.919Z,10.82
2017-05-15T03:52:45.527Z,10.74
2017-05-15T03:53:46.126Z,10.74
2017-05-15T03:54:46.736Z,10.75
2017-05-15T03:55:47.349Z,10.75
2017-05-15T03:56:48.006Z,10.61
2017-05-15T03:57:48.605Z,10.63
2017-05-15T03:58:49.218Z,10.61
2017-05-15T03:59:49.824Z,10.64
2017-05-15T04:00:50.427Z,10.64
2017-05-15T04:01:51.092Z,10.66
2017-05-15T04:02:51.690Z,10.69
2017-05-15T04:03:52.296Z,10.63
2017-05-15T04:04:52.908Z,10.54
2017-05-15T04:05:53.517Z,10.66
2017-05-15T04:06:54.130Z,10.63
2017-05-15T04:07:54.744Z,10.58
2017-05-15T04:08:55.362Z,10.53
2017-05-15T04:09:55.989Z,10.47
2017-05-15T04:10:56.592Z,10.51
2017-05-15T04:11:57.245Z,10.56
2017-05-15T04:12:57.855Z,10.54
2017-05-15T04:13:58.464Z,10.53
2017-05-15T04:14:59.090Z,10.58
2017-05-15T04:15:59.698Z,10.56
2017-05-15T04:17:00.360Z,10.49
2017-05-15T04:18:00.960Z,10.51
2017-05-15T04:19:01.569Z,10.63
2017-05-15T04:20:02.179Z,10.61
2017-05-15T04:21:02.795Z,10.66
2017-05-15T04:22:03.413Z,10.63
2017-05-15T04:23:04.011Z,10.58
2017-05-15T04:24:04.611Z,10.75
2017-05-15T04:25:05.222Z,10.75
2017-05-15T04:26:05.823Z,10.75
2017-05-15T04:27:06.432Z,10.85
2017-05-15T04:28:07.032Z,10.85
2017-05-15T04:29:07.644Z,10.90
2017-05-15T04:30:08.248Z,11.04
2017-05-15T04:31:08.903Z,11.19
2017-05-15T04:32:09.509Z,11.58
2017-05-15T04:33:10.130Z,11.91
2017-05-15T04:34:10.734Z,12.35
2017-05-15T04:35:11.352Z,12.50
2017-05-15T04:36:12.015Z,12.72
2017-05-15T04:37:12.635Z,13.01
2017-05-15T04:38:13.236Z,13.18
2017-05-15T04:39:13.849Z,13.30
2017-05-15T04:40:14.463Z,13.64
2017-05-15T04:41:15.073Z,14.03
2017-05-15T04:42:15.673Z,14.30
2017-05-15T04:43:16.286Z,14.15
2017-05-15T04:44:16.882Z,14.17
2017-05-15T04:45:17.498Z,14.00
2017-05-15T04:46:18.118Z,14.17
2017-05-15T04:47:18.791Z,14.33
2017-05-15T04:48:19.408Z,14.55
2017-05-15T04:49:20.027Z,14.73
2017-05-15T04:50:20.628Z,14.82
2017-05-15T04:51:21.232Z,15.01
2017-05-15T04:52:21.846Z,15.03
2017-05-15T04:53:22.455Z,14.99
2017-05-15T04:54:23.092Z,14.91
2017-05-15T04:55:23.673Z,14.62
2017-05-15T04:56:24.330Z,14.57
2017-05-15T04:57:24.949Z,14.57
2017-05-15T04:58:25.555Z,14.54
2017-05-15T04:59:26.171Z,14.63
2017-05-15T05:00:26.785Z,14.72
2017-05-15T05:01:27.443Z,14.95
2017-05-15T05:02:28.062Z,15.03
2017-05-15T05:03:28.668Z,15.18
2017-05-15T05:04:29.286Z,15.46
2017-05-15T05:05:29.902Z,15.97
2017-05-15T05:06:30.506Z,16.27
2017-05-15T05:07:31.114Z,16.50
2017-05-15T05:08:31.722Z,16.79
2017-05-15T05:09:32.332Z,16.97
2017-05-15T05:10:32.955Z,17.24
2017-05-15T05:11:33.622Z,17.59
2017-05-15T05:12:34.241Z,17.97
2017-05-15T05:13:34.863Z,18.23
2017-05-15T05:14:35.483Z,18.40
2017-05-15T05:15:36.109Z,18.73
2017-05-15T05:16:36.772Z,18.90
2017-05-15T05:17:37.397Z,19.04
2017-05-15T05:18:38.002Z,19.33
2017-05-15T05:19:38.617Z,19.30
2017-05-15T05:20:39.232Z,19.58
2017-05-15T05:21:39.910Z,19.77
2017-05-15T05:22:40.521Z,19.79
2017-05-15T05:23:41.134Z,19.66
2017-05-15T05:24:41.755Z,19.87
2017-05-15T05:25:42.381Z,19.99
2017-05-15T05:26:43.044Z,19.70
2017-05-15T05:27:43.674Z,19.34
2017-05-15T05:28:44.303Z,19.00
2017-05-15T05:29:44.933Z,18.81
2017-05-15T05:30:45.558Z,18.65
2017-05-15T05:31:46.175Z,18.58
2017-05-15T05:32:46.811Z,18.32
2017-05-15T05:33:47.436Z,18.29
2017-05-15T05:34:48.061Z,18.27
2017-05-15T05:35:48.684Z,18.27
2017-05-15T05:36:49.347Z,18.18
2017-05-15T05:37:49.979Z,18.19
2017-05-15T05:38:50.663Z,18.26
2017-05-15T05:39:51.243Z,18.27
2017-05-15T05:40:51.869Z,18.40
2017-05-15T05:41:52.552Z,18.63
2017-05-15T05:42:53.175Z,19.12
2017-05-15T05:43:53.793Z,19.69
2017-05-15T05:44:54.410Z,20.29
2017-05-15T05:45:55.038Z,20.55
2017-05-15T05:46:55.719Z,20.92
2017-05-15T05:47:56.343Z,20.98
2017-05-15T05:48:56.963Z,21.22
2017-05-15T05:49:57.611Z,21.43
2017-05-15T05:50:58.209Z,21.46
2017-05-15T05:51:58.892Z,21.46
2017-05-15T05:52:59.513Z,21.72
2017-05-15T05:54:00.149Z,21.89
2017-05-15T05:55:00.760Z,21.96
2017-05-15T05:56:01.390Z,22.28
2017-05-15T05:57:02.073Z,22.57
2017-05-15T05:58:02.641Z,22.54
2017-05-15T05:59:03.267Z,22.70
2017-05-15T06:00:03.887Z,22.60
2017-05-15T06:01:04.506Z,22.16
2017-05-15T06:02:05.189Z,21.86
2017-05-15T06:03:05.807Z,22.02
2017-05-15T06:04:06.421Z,22.14
2017-05-15T06:05:07.046Z,22.07
2017-05-15T06:06:07.675Z,22.05
2017-05-15T06:07:08.353Z,22.23
2017-05-15T06:08:08.999Z,22.29
2017-05-15T06:09:09.620Z,22.26
2017-05-15T06:10:10.254Z,22.36
2017-05-15T06:11:10.887Z,22.20
2017-05-15T06:12:11.555Z,22.10
2017-05-15T06:13:12.189Z,22.40
2017-05-15T06:14:12.820Z,22.76
2017-05-15T06:15:13.448Z,22.73
2017-05-15T06:16:14.074Z,22.66
2017-05-15T06:17:14.752Z,22.68
2017-05-15T06:18:15.372Z,22.88
2017-05-15T06:19:16.014Z,22.87
2017-05-15T06:20:16.634Z,22.84
2017-05-15T06:21:17.250Z,23.00
2017-05-15T06:22:17.878Z,23.09
2017-05-15T06:23:18.497Z,23.40
2017-05-15T06:24:19.126Z,23.96
2017-05-15T06:25:19.744Z,23.83
2017-05-15T06:26:20.376Z,24.01
2017-05-15T06:27:21.057Z,24.14
2017-05-15T06:28:21.691Z,24.14
2017-05-15T06:29:22.333Z,24.35
2017-05-15T06:30:22.971Z,24.51
2017-05-15T06:31:23.606Z,24.31
2017-05-15T06:32:24.282Z,24.05
2017-05-15T06:33:24.914Z,24.08
2017-05-15T06:34:25.545Z,24.21
2017-05-15T06:35:26.170Z,24.57
2017-05-15T06:36:26.788Z,24.69
2017-05-15T06:37:27.415Z,24.80
2017-05-15T06:38:28.043Z,24.42
2017-05-15T06:39:28.674Z,24.45
2017-05-15T06:40:29.299Z,24.70
2017-05-15T06:41:29.928Z,24.43
2017-05-15T06:42:30.557Z,24.61
2017-05-15T06:43:31.181Z,24.91
2017-05-15T06:44:31.816Z,25.29
2017-05-15T06:45:32.445Z,25.72
2017-05-15T06:46:33.077Z,25.88
2017-05-15T06:47:33.759Z,25.91
2017-05-15T06:48:34.392Z,25.78
2017-05-15T06:49:35.033Z,25.87
2017-05-15T06:50:35.670Z,25.72
2017-05-15T06:51:36.302Z,25.71
2017-05-15T06:52:36.993Z,25.76
2017-05-15T06:53:37.624Z,25.58
2017-05-15T06:54:38.267Z,25.48
2017-05-15T06:55:38.872Z,25.51
2017-05-15T06:56:39.508Z,25.75
2017-05-15T06:57:40.184Z,25.46
2017-05-15T06:58:40.805Z,25.91
2017-05-15T06:59:41.439Z,26.19
2017-05-15T07:00:42.082Z,26.50
2017-05-15T07:01:42.716Z,26.47
2017-05-15T07:02:43.402Z,26.48
2017-05-15T07:03:44.036Z,26.65
2017-05-15T07:04:44.664Z,26.87
2017-05-15T07:05:45.287Z,27.15
2017-05-15T07:06:45.911Z,27.21
2017-05-15T07:07:46.595Z,27.39
2017-05-15T07:08:47.230Z,27.67
2017-05-15T07:09:47.869Z,27.23
2017-05-15T07:10:48.498Z,26.99
2017-05-15T07:11:49.122Z,26.62
2017-05-15T07:12:49.754Z,26.74
2017-05-15T07:13:50.391Z,27.00
2017-05-15T07:14:51.027Z,27.06
2017-05-15T07:15:51.650Z,27.05
2017-05-15T07:16:52.282Z,27.18
2017-05-15T07:17:52.919Z,27.29
2017-05-15T07:18:53.554Z,27.05
2017-05-15T07:19:54.174Z,26.87
2017-05-15T07:20:54.812Z,27.02
2017-05-15T07:21:55.443Z,27.17
2017-05-15T07:22:56.120Z,27.24
2017-05-15T07:23:56.742Z,27.39
2017-05-15T07:24:57.374Z,27.35
2017-05-15T07:25:58.001Z,27.10
2017-05-15T07:26:58.636Z,27.15
2017-05-15T07:27:59.307Z,27.02
2017-05-15T07:28:59.940Z,26.74
2017-05-15T07:30:00.563Z,26.85
2017-05-15T07:31:01.197Z,26.73
2017-05-15T07:32:01.820Z,26.84
2017-05-15T07:33:02.499Z,26.61
2017-05-15T07:34:03.132Z,26.41
2017-05-15T07:35:03.762Z,26.63
2017-05-15T07:36:04.382Z,26.55
2017-05-15T07:37:05.002Z,26.39
2017-05-15T07:38:05.637Z,26.83
2017-05-15T07:39:06.273Z,27.02
2017-05-15T07:40:06.896Z,27.05
2017-05-15T07:41:07.527Z,26.96
2017-05-15T07:42:08.155Z,26.74
2017-05-15T07:43:08.834Z,26.85
2017-05-15T07:44:09.460Z,26.88
2017-05-15T07:45:10.093Z,26.29
2017-05-15T07:46:10.714Z,26.09
2017-05-15T07:47:11.331Z,26.02
2017-05-15T07:48:12.002Z,26.08
2017-05-15T07:49:12.624Z,26.00
2017-05-15T07:50:13.259Z,26.12
2017-05-15T07:51:13.896Z,26.24
2017-05-15T07:52:14.520Z,26.68
2017-05-15T07:53:15.154Z,26.95
2017-05-15T07:54:15.779Z,27.10
2017-05-15T07:55:16.419Z,27.42
2017-05-15T07:56:17.052Z,27.35
2017-05-15T07:57:17.683Z,27.21
2017-05-15T07:58:18.322Z,27.28
2017-05-15T07:59:18.948Z,26.95
2017-05-15T08:00:19.565Z,26.91
2017-05-15T08:01:20.194Z,27.02
2017-05-15T08:02:20.813Z,26.85
2017-05-15T08:03:21.498Z,26.73
2017-05-15T08:04:22.133Z,26.55
2017-05-15T08:05:22.770Z,26.58
2017-05-15T08:06:23.405Z,26.78
2017-05-15T08:07:24.044Z,26.61
2017-05-15T08:08:24.726Z,26.87
2017-05-15T08:09:25.361Z,26.99
2017-05-15T08:10:25.978Z,27.02
2017-05-15T08:11:26.599Z,27.25
2017-05-15T08:12:27.439Z,27.39
2017-05-15T08:13:28.108Z,27.43
2017-05-15T08:14:28.740Z,27.17
2017-05-15T08:15:29.372Z,26.81
2017-05-15T08:16:30.003Z,26.68
2017-05-15T08:17:30.635Z,26.95
2017-05-15T08:18:31.315Z,26.99
2017-05-15T08:19:31.941Z,27.08
2017-05-15T08:20:32.600Z,27.20
2017-05-15T08:21:33.230Z,27.15
2017-05-15T08:22:33.861Z,27.02
2017-05-15T08:23:34.547Z,26.76
2017-05-15T08:24:35.164Z,26.26
2017-05-15T08:25:35.800Z,26.05
2017-05-15T08:26:36.435Z,26.25
2017-05-15T08:27:37.061Z,26.48
2017-05-15T08:28:37.699Z,26.44
2017-05-15T08:29:38.338Z,26.69
2017-05-15T08:30:38.968Z,26.84
2017-05-15T08:31:39.599Z,26.76
2017-05-15T08:32:40.218Z,26.47
2017-05-15T08:33:40.888Z,26.28
2017-05-15T08:34:41.500Z,26.43
2017-05-15T08:35:42.119Z,26.24
2017-05-15T08:36:42.792Z,26.47
2017-05-15T08:37:43.412Z,26.40
2017-05-15T08:38:44.028Z,26.66
2017-05-15T08:39:44.657Z,26.50
2017-05-15T08:40:45.297Z,26.84
2017-05-15T08:41:45.977Z,26.92
2017-05-15T08:42:46.610Z,26.85
2017-05-15T08:43:47.245Z,27.10
2017-05-15T08:44:47.882Z,27.13
2017-05-15T08:45:48.502Z,27.11
2017-05-15T08:46:49.184Z,27.17
2017-05-15T08:47:49.821Z,27.13
2017-05-15T08:48:50.456Z,27.43
2017-05-15T08:49:51.074Z,27.54
2017-05-15T08:50:51.703Z,27.47
2017-05-15T08:51:52.320Z,27.58
2017-05-15T08:52:52.940Z,27.59
2017-05-15T08:53:53.563Z,27.74
2017-05-15T08:54:54.186Z,27.74
2017-05-15T08:55:54.825Z,27.61
2017-05-15T08:56:55.440Z,27.17
2017-05-15T08:57:56.078Z,26.66
2017-05-15T08:58:56.715Z,26.66
2017-05-15T08:59:57.352Z,26.91
2017-05-15T09:00:57.974Z,27.20
2017-05-15T09:01:58.602Z,27.45
2017-05-15T09:02:59.222Z,27.77
2017-05-15T09:03:59.844Z,27.86
2017-05-15T09:05:00.483Z,27.83
2017-05-15T09:06:01.322Z,27.78
2017-05-15T09:07:02.000Z,27.45
2017-05-15T09:08:02.645Z,27.28
2017-05-15T09:09:03.276Z,26.62
2017-05-15T09:10:03.923Z,26.56
2017-05-15T09:11:04.557Z,26.63
2017-05-15T09:12:05.184Z,26.43
2017-05-15T09:13:05.822Z,26.66
2017-05-15T09:14:06.457Z,26.96
2017-05-15T09:15:07.301Z,27.18
2017-05-15T09:16:07.986Z,27.33
2017-05-15T09:17:08.608Z,26.65
2017-05-15T09:18:09.249Z,26.05
2017-05-15T09:19:09.889Z,25.98
2017-05-15T09:20:10.524Z,26.31
2017-05-15T09:21:11.209Z,26.13
2017-05-15T09:22:11.845Z,26.48
2017-05-15T09:23:12.480Z,26.88
2017-05-15T09:24:13.103Z,27.23
2017-05-15T09:25:13.726Z,27.55
2017-05-15T09:26:14.401Z,27.33
2017-05-15T09:27:15.029Z,26.84
2017-05-15T09:28:15.665Z,26.55
2017-05-15T09:29:16.282Z,26.63
2017-05-15T09:30:16.920Z,26.58
2017-05-15T09:31:17.555Z,26.56
2017-05-15T09:32:18.187Z,26.41
2017-05-15T09:33:18.810Z,26.54
2017-05-15T09:34:19.445Z,26.87
2017-05-15T09:35:20.079Z,26.99
2017-05-15T09:36:20.766Z,27.08
2017-05-15T09:37:21.393Z,27.13
2017-05-15T09:38:22.021Z,27.18
2017-05-15T09:39:22.648Z,27.40
2017-05-15T09:40:23.279Z,26.98
2017-05-15T09:41:24.046Z,27.03
2017-05-15T09:42:24.669Z,27.00
2017-05-15T09:43:25.305Z,26.85
2017-05-15T09:44:25.940Z,26.65
2017-05-15T09:45:26.563Z,26.59
2017-05-15T09:46:27.237Z,26.62
2017-05-15T09:47:27.871Z,26.50
2017-05-15T09:48:28.506Z,26.65
2017-05-15T09:49:29.140Z,26.85
2017-05-15T09:50:29.766Z,26.74
2017-05-15T09:51:30.448Z,26.47
2017-05-15T09:52:31.085Z,26.69
2017-05-15T09:53:31.705Z,26.76
2017-05-15T09:54:32.335Z,26.68
2017-05-15T09:55:32.956Z,26.55
2017-05-15T09:56:33.635Z,26.54
2017-05-15T09:57:34.268Z,26.24
2017-05-15T09:58:34.886Z,26.13
2017-05-15T09:59:35.513Z,26.02
2017-05-15T10:00:36.136Z,26.03
2017-05-15T10:01:36.765Z,26.44
2017-05-15T10:02:37.389Z,26.54
2017-05-15T10:03:38.017Z,26.31
2017-05-15T10:04:38.658Z,26.47
2017-05-15T10:05:39.291Z,26.73
2017-05-15T10:06:39.980Z,26.87
2017-05-15T10:07:40.603Z,26.74
2017-05-15T10:08:41.242Z,26.73
2017-05-15T10:09:41.919Z,26.63
2017-05-15T10:10:42.548Z,26.40
2017-05-15T10:11:43.235Z,26.00
2017-05-15T10:12:43.854Z,26.09
2017-05-15T10:13:44.478Z,26.37
2017-05-15T10:14:45.112Z,26.13
2017-05-15T10:15:45.734Z,26.37
2017-05-15T10:16:46.409Z,26.54
2017-05-15T10:17:47.049Z,26.88
2017-05-15T10:18:47.684Z,27.03
2017-05-15T10:19:48.324Z,26.88
2017-05-15T10:20:48.960Z,26.84
2017-05-15T10:21:49.643Z,26.95
2017-05-15T10:22:50.269Z,27.03
2017-05-15T10:23:50.892Z,27.00
2017-05-15T10:24:51.528Z,27.05
2017-05-15T10:25:52.164Z,27.10
2017-05-15T10:26:52.851Z,27.29
2017-05-15T10:27:53.486Z,27.36
2017-05-15T10:28:54.107Z,27.45
2017-05-15T10:29:54.728Z,27.63
2017-05-15T10:30:55.569Z,27.70
2017-05-15T10:31:56.198Z,27.90
2017-05-15T10:32:56.826Z,27.80
2017-05-15T10:33:57.469Z,27.83
2017-05-15T10:34:58.109Z,27.61
2017-05-15T10:35:58.733Z,27.51
2017-05-15T10:36:59.403Z,27.45
2017-05-15T10:38:00.037Z,27.61
2017-05-15T10:39:00.661Z,27.78
2017-05-15T10:40:01.298Z,28.15
2017-05-15T10:41:01.936Z,28.25
2017-05-15T10:42:02.620Z,28.20
2017-05-15T10:43:03.252Z,28.13
2017-05-15T10:44:03.885Z,28.29
2017-05-15T10:45:04.506Z,28.23
2017-05-15T10:46:05.143Z,28.42
2017-05-15T10:47:05.775Z,27.98
2017-05-15T10:48:06.403Z,27.77
2017-05-15T10:49:07.029Z,27.63
2017-05-15T10:50:07.657Z,27.71
2017-05-15T10:51:08.289Z,27.96
2017-05-15T10:52:08.961Z,27.68
2017-05-15T10:53:09.599Z,27.58
2017-05-15T10:54:10.235Z,27.51
2017-05-15T10:55:10.853Z,27.51
2017-05-15T10:56:11.476Z,27.50
2017-05-15T10:57:12.276Z,27.67
2017-05-15T10:58:12.913Z,28.10
2017-05-15T10:59:13.546Z,28.38
2017-05-15T11:00:14.179Z,28.54
2017-05-15T11:01:14.816Z,28.67
2017-05-15T11:02:15.506Z,28.59
2017-05-15T11:03:16.140Z,28.65
2017-05-15T11:04:16.762Z,28.70
2017-05-15T11:05:17.399Z,28.29
2017-05-15T11:06:18.038Z,28.27
2017-05-15T11:07:18.673Z,28.30
2017-05-15T11:08:19.354Z,28.23
2017-05-15T11:09:19.975Z,28.14
2017-05-15T11:10:20.613Z,28.14
2017-05-15T11:11:21.233Z,28.20
2017-05-15T11:12:21.867Z,28.30
2017-05-15T11:13:22.552Z,28.26
2017-05-15T11:14:23.195Z,28.11
2017-05-15T11:15:23.820Z,28.26
2017-05-15T11:16:24.444Z,28.40
2017-05-15T11:17:25.081Z,28.42
2017-05-15T11:18:25.757Z,28.38
2017-05-15T11:19:26.379Z,28.38
2017-05-15T11:20:26.993Z,28.27
2017-05-15T11:21:27.617Z,28.48
2017-05-15T11:22:28.245Z,28.81
2017-05-15T11:23:28.929Z,28.89
2017-05-15T11:24:29.562Z,28.63
2017-05-15T11:25:30.204Z,28.50
2017-05-15T11:26:30.845Z,28.50
2017-05-15T11:27:31.472Z,28.57
2017-05-15T11:28:32.155Z,28.97
2017-05-15T11:29:32.791Z,29.10
2017-05-15T11:30:33.442Z,28.81
2017-05-15T11:31:34.105Z,28.91
2017-05-15T11:32:34.754Z,28.91
2017-05-15T11:33:35.413Z,29.08
2017-05-15T11:34:36.053Z,29.00
2017-05-15T11:35:36.690Z,29.16
2017-05-15T11:36:37.319Z,29.41
2017-05-15T11:37:37.950Z,29.67
2017-05-15T11:38:38.635Z,29.94
2017-05-15T11:39:39.276Z,29.78
2017-05-15T11:40:39.906Z,29.52
2017-05-15T11:41:40.548Z,29.57
2017-05-15T11:42:41.388Z,29.69
2017-05-15T11:43:42.025Z,29.71
2017-05-15T11:44:42.666Z,29.78
2017-05-15T11:45:43.283Z,29.90
2017-05-15T11:46:43.909Z,30.06
2017-05-15T11:47:44.545Z,29.64
2017-05-15T11:48:45.169Z,29.45
2017-05-15T11:49:45.798Z,29.57
2017-05-15T11:50:46.436Z,29.89
2017-05-15T11:51:47.122Z,29.69
2017-05-15T11:52:47.759Z,29.81
2017-05-15T11:53:48.399Z,30.00
2017-05-15T11:54:49.041Z,30.12
2017-05-15T11:55:49.678Z,30.35
2017-05-15T11:56:50.316Z,30.54
2017-05-15T11:57:50.948Z,30.35
2017-05-15T11:58:51.584Z,30.37
2017-05-15T11:59:52.212Z,30.54
2017-05-15T12:00:52.846Z,30.68
2017-05-15T12:01:53.483Z,30.37
2017-05-15T12:02:54.102Z,30.44
2017-05-15T12:03:54.731Z,30.64
2017-05-15T12:04:55.383Z,30.86
2017-05-15T12:05:56.074Z,30.87
2017-05-15T12:06:56.811Z,30.38
2017-05-15T12:07:57.440Z,30.05
2017-05-15T12:08:58.069Z,29.99
2017-05-15T12:09:58.693Z,30.09
2017-05-15T12:10:59.337Z,30.47
2017-05-15T12:12:00.019Z,30.35
2017-05-15T12:13:00.654Z,30.34
2017-05-15T12:14:01.296Z,30.35
2017-05-15T12:15:01.927Z,30.15
2017-05-15T12:16:02.560Z,30.24
2017-05-15T12:17:03.232Z,30.51
2017-05-15T12:18:03.858Z,30.88
2017-05-15T12:19:04.494Z,30.94
2017-05-15T12:20:05.136Z,31.12
2017-05-15T12:21:05.769Z,30.60
2017-05-15T12:22:06.508Z,30.40
2017-05-15T12:23:07.140Z,30.47
2017-05-15T12:24:07.783Z,30.64
2017-05-15T12:25:08.414Z,30.56
2017-05-15T12:26:09.046Z,30.64
2017-05-15T12:27:09.718Z,30.57
2017-05-15T12:28:10.351Z,30.87
2017-05-15T12:29:10.980Z,31.10
2017-05-15T12:30:11.607Z,30.87
2017-05-15T12:31:12.253Z,31.18
2017-05-15T12:32:12.882Z,31.28
2017-05-15T12:33:13.504Z,31.20
2017-05-15T12:34:14.129Z,31.45
2017-05-15T12:35:14.969Z,31.34
2017-05-15T12:36:15.812Z,31.37
2017-05-15T12:37:16.481Z,31.54
2017-05-15T12:38:17.111Z,31.87
2017-05-15T12:39:17.736Z,32.07
2017-05-15T12:40:18.378Z,32.05
2017-05-15T12:41:19.015Z,31.73
2017-05-15T12:42:19.641Z,31.95
2017-05-15T12:43:20.290Z,31.80
2017-05-15T12:44:20.943Z,31.67
2017-05-15T12:45:21.564Z,31.87
2017-05-15T12:46:22.200Z,32.06
2017-05-15T12:47:22.873Z,32.41
2017-05-15T12:48:23.507Z,32.14
2017-05-15T12:49:24.135Z,31.96
2017-05-15T12:50:24.769Z,31.80
2017-05-15T12:51:25.394Z,31.88
2017-05-15T12:52:26.067Z,32.07
2017-05-15T12:53:26.705Z,31.80
2017-05-15T12:54:27.337Z,31.37
2017-05-15T12:55:27.973Z,31.09
2017-05-15T12:56:28.609Z,30.81
2017-05-15T12:57:29.280Z,30.83
2017-05-15T12:58:29.909Z,30.72
2017-05-15T12:59:30.541Z,31.08
2017-05-15T13:00:31.163Z,31.27